This is the latest recevied weather packets stored in our database for station/object IU2PLZ-10. If no packets are shown the sender has not sent any weather packets the latest 1 day(s).
| Time | Temp. | Humidity | Pressure | Rain* | Wind** | Luminosity | Snow |
|---|---|---|---|---|---|---|---|
| 1777792627 | 24.44° C | 46% | 970.2 hPa | - | - | - | - |
| 1777791727 | 25° C | 47% | 971.1 hPa | - | - | - | - |
| 1777790827 | 23.89° C | 48% | 970.4 hPa | - | - | - | - |
| 1777789926 | 22.78° C | 50% | 970.3 hPa | - | - | - | - |
| 1777789026 | 22.22° C | 50% | 970.2 hPa | - | - | - | - |
| 1777788126 | 22.22° C | 52% | 970.3 hPa | - | - | - | - |
| 1777787226 | 21.67° C | 53% | 971 hPa | - | - | - | - |
| 1777786326 | 20° C | 54% | 970.1 hPa | - | - | - | - |
| 1777785425 | 19.44° C | 56% | 970.8 hPa | - | - | - | - |
| 1777784525 | 18.33° C | 58% | 970.7 hPa | - | - | - | - |
| 1777783625 | 16.67° C | 58% | 970.5 hPa | - | - | - | - |
| 1777782725 | 15.56° C | 60% | 970.5 hPa | - | - | - | - |
| 1777781825 | 13.89° C | 61% | 969.6 hPa | - | - | - | - |
| 1777780925 | 13.89° C | 59% | 969.7 hPa | - | - | - | - |
| 1777780024 | 14.44° C | 60% | 970.3 hPa | - | - | - | - |
| 1777779124 | 13.89° C | 60% | 969.6 hPa | - | - | - | - |
| 1777778224 | 14.44° C | 59% | 970.5 hPa | - | - | - | - |
| 1777777324 | 14.44° C | 58% | 970.4 hPa | - | - | - | - |
| 1777776424 | 14.44° C | 59% | 970.3 hPa | - | - | - | - |
| 1777775524 | 14.44° C | 57% | 970.5 hPa | - | - | - | - |
| 1777774624 | 14.44° C | 58% | 970.4 hPa | - | - | - | - |
| 1777773723 | 13.89° C | 56% | 969.8 hPa | - | - | - | - |
| 1777772823 | 14.44° C | 56% | 970.5 hPa | - | - | - | - |
| 1777771923 | 13.89° C | 56% | 969.6 hPa | - | - | - | - |
| 1777771023 | 13.89° C | 54% | 969.6 hPa | - | - | - | - |
* Rain since midnight (hover to see other rain measurements)
** Current wind speed in m/s (hover to see current wind gust speed)